sensor_id;sensor_type;location;lat;lon;timestamp;pressure;altitude;pressure_sealevel;temperature;humidity
69772;BME280;57046;45.988;18.664;2022-12-18T00:02:22;102217.97;;;1.17;87.46
69772;BME280;57046;45.988;18.664;2022-12-18T00:04:47;102210.97;;;0.91;88.68
69772;BME280;57046;45.988;18.664;2022-12-18T00:07:13;102225.13;;;0.79;90.03
69772;BME280;57046;45.988;18.664;2022-12-18T00:09:38;102218.19;;;0.78;90.63
69772;BME280;57046;45.988;18.664;2022-12-18T00:12:04;102239.00;;;0.87;90.57
69772;BME280;57046;45.988;18.664;2022-12-18T00:14:29;102222.63;;;0.90;89.79
69772;BME280;57046;45.988;18.664;2022-12-18T00:16:55;102243.25;;;1.01;89.12
69772;BME280;57046;45.988;18.664;2022-12-18T00:19:20;102239.78;;;1.01;88.55
69772;BME280;57046;45.988;18.664;2022-12-18T00:21:45;102243.28;;;0.95;88.98
69772;BME280;57046;45.988;18.664;2022-12-18T00:24:11;102240.41;;;0.96;89.03
69772;BME280;57046;45.988;18.664;2022-12-18T00:26:38;102248.38;;;0.96;88.29
69772;BME280;57046;45.988;18.664;2022-12-18T00:29:11;102227.03;;;0.65;89.53
69772;BME280;57046;45.988;18.664;2022-12-18T00:31:38;102260.47;;;0.92;88.80
69772;BME280;57046;45.988;18.664;2022-12-18T00:34:03;102255.63;;;0.76;89.77
69772;BME280;57046;45.988;18.664;2022-12-18T00:36:33;102269.50;;;0.91;88.83
69772;BME280;57046;45.988;18.664;2022-12-18T00:39:01;102277.47;;;0.91;88.70
69772;BME280;57046;45.988;18.664;2022-12-18T00:41:27;102279.72;;;0.94;88.25
69772;BME280;57046;45.988;18.664;2022-12-18T00:43:53;102288.53;;;0.95;88.35
69772;BME280;57046;45.988;18.664;2022-12-18T00:46:18;102279.78;;;0.75;88.61
69772;BME280;57046;45.988;18.664;2022-12-18T00:48:43;102280.56;;;0.82;88.88
69772;BME280;57046;45.988;18.664;2022-12-18T00:51:09;102281.22;;;0.77;88.36
69772;BME280;57046;45.988;18.664;2022-12-18T00:53:35;102287.56;;;0.76;87.80
69772;BME280;57046;45.988;18.664;2022-12-18T00:56:00;102256.91;;;0.61;87.50
69772;BME280;57046;45.988;18.664;2022-12-18T00:58:25;102282.66;;;0.73;87.44
69772;BME280;57046;45.988;18.664;2022-12-18T01:00:51;102281.41;;;0.76;86.96
69772;BME280;57046;45.988;18.664;2022-12-18T01:03:16;102280.59;;;0.75;86.99
69772;BME280;57046;45.988;18.664;2022-12-18T01:05:42;102294.88;;;0.87;86.54
69772;BME280;57046;45.988;18.664;2022-12-18T01:08:07;102296.34;;;0.77;86.85
69772;BME280;57046;45.988;18.664;2022-12-18T01:10:33;102306.16;;;0.83;86.43
69772;BME280;57046;45.988;18.664;2022-12-18T01:12:58;102312.88;;;0.85;85.58
69772;BME280;57046;45.988;18.664;2022-12-18T01:15:23;102304.38;;;0.64;86.09
69772;BME280;57046;45.988;18.664;2022-12-18T01:17:52;102315.41;;;0.67;85.74
69772;BME280;57046;45.988;18.664;2022-12-18T01:20:17;102325.22;;;0.67;84.86
69772;BME280;57046;45.988;18.664;2022-12-18T01:22:43;102321.56;;;0.61;85.05
69772;BME280;57046;45.988;18.664;2022-12-18T01:25:08;102319.28;;;0.58;85.81
69772;BME280;57046;45.988;18.664;2022-12-18T01:27:34;102317.03;;;0.62;86.24
69772;BME280;57046;45.988;18.664;2022-12-18T01:29:59;102308.06;;;0.56;86.41
69772;BME280;57046;45.988;18.664;2022-12-18T01:32:25;102309.31;;;0.54;86.16
69772;BME280;57046;45.988;18.664;2022-12-18T01:34:50;102322.38;;;0.55;86.13
69772;BME280;57046;45.988;18.664;2022-12-18T01:37:15;102319.31;;;0.51;86.13
69772;BME280;57046;45.988;18.664;2022-12-18T01:39:41;102328.09;;;0.65;85.90
69772;BME280;57046;45.988;18.664;2022-12-18T01:42:12;102331.56;;;0.72;84.83
69772;BME280;57046;45.988;18.664;2022-12-18T01:44:56;102330.75;;;0.59;85.66
69772;BME280;57046;45.988;18.664;2022-12-18T01:49:54;102324.44;;;0.53;85.46
69772;BME280;57046;45.988;18.664;2022-12-18T01:52:20;102328.94;;;0.52;85.95
69772;BME280;57046;45.988;18.664;2022-12-18T01:54:46;102325.66;;;0.57;85.62
69772;BME280;57046;45.988;18.664;2022-12-18T01:57:12;102331.59;;;0.46;85.95
69772;BME280;57046;45.988;18.664;2022-12-18T01:59:39;102318.09;;;0.41;86.54
69772;BME280;57046;45.988;18.664;2022-12-18T02:02:07;102323.03;;;0.37;87.11
69772;BME280;57046;45.988;18.664;2022-12-18T02:04:33;102330.59;;;0.34;87.66
69772;BME280;57046;45.988;18.664;2022-12-18T02:07:10;102336.72;;;0.41;87.29
69772;BME280;57046;45.988;18.664;2022-12-18T02:09:49;102339.78;;;0.38;87.64
69772;BME280;57046;45.988;18.664;2022-12-18T02:12:23;102336.50;;;0.42;88.23
69772;BME280;57046;45.988;18.664;2022-12-18T02:15:01;102331.00;;;0.44;87.25
69772;BME280;57046;45.988;18.664;2022-12-18T02:22:54;102348.56;;;0.38;86.72
69772;BME280;57046;45.988;18.664;2022-12-18T02:28:23;102361.88;;;0.45;86.34
69772;BME280;57046;45.988;18.664;2022-12-18T02:30:52;102355.53;;;0.39;85.90
69772;BME280;57046;45.988;18.664;2022-12-18T02:33:21;102352.88;;;0.39;86.17
69772;BME280;57046;45.988;18.664;2022-12-18T02:35:48;102361.88;;;0.45;86.39
69772;BME280;57046;45.988;18.664;2022-12-18T02:38:16;102354.94;;;0.44;87.03
69772;BME280;57046;45.988;18.664;2022-12-18T02:40:42;102348.78;;;0.17;87.11
69772;BME280;57046;45.988;18.664;2022-12-18T02:43:12;102355.13;;;0.23;86.71
69772;BME280;57046;45.988;18.664;2022-12-18T02:45:53;102361.28;;;0.17;87.33
69772;BME280;57046;45.988;18.664;2022-12-18T02:48:24;102364.53;;;0.19;87.67
69772;BME280;57046;45.988;18.664;2022-12-18T02:53:36;102354.31;;;0.09;87.77
69772;BME280;57046;45.988;18.664;2022-12-18T02:56:34;102366.38;;;0.31;86.84
69772;BME280;57046;45.988;18.664;2022-12-18T02:59:09;102357.56;;;0.31;86.39
69772;BME280;57046;45.988;18.664;2022-12-18T03:01:51;102326.50;;;0.12;86.18
69772;BME280;57046;45.988;18.664;2022-12-18T03:07:03;102362.69;;;0.39;86.04
69772;BME280;57046;45.988;18.664;2022-12-18T03:09:40;102374.34;;;0.31;85.79
69772;BME280;57046;45.988;18.664;2022-12-18T03:12:17;102365.13;;;0.21;85.65
69772;BME280;57046;45.988;18.664;2022-12-18T03:14:45;102381.50;;;0.24;85.40
69772;BME280;57046;45.988;18.664;2022-12-18T03:17:17;102362.06;;;-0.03;85.83
69772;BME280;57046;45.988;18.664;2022-12-18T03:19:45;102365.34;;;0.06;85.21
69772;BME280;57046;45.988;18.664;2022-12-18T03:22:12;102375.75;;;0.08;85.34
69772;BME280;57046;45.988;18.664;2022-12-18T03:24:38;102371.50;;;0.07;85.54
69772;BME280;57046;45.988;18.664;2022-12-18T03:27:06;102392.75;;;0.13;85.04
69772;BME280;57046;45.988;18.664;2022-12-18T03:29:48;102403.16;;;0.15;84.50
69772;BME280;57046;45.988;18.664;2022-12-18T03:32:23;102404.59;;;0.11;85.23
69772;BME280;57046;45.988;18.664;2022-12-18T03:34:51;102398.00;;;-0.07;85.86
69772;BME280;57046;45.988;18.664;2022-12-18T03:37:18;102406.03;;;0.00;86.50
69772;BME280;57046;45.988;18.664;2022-12-18T03:39:44;102416.03;;;0.05;85.61
69772;BME280;57046;45.988;18.664;2022-12-18T03:42:16;102421.56;;;0.03;84.92
69772;BME280;57046;45.988;18.664;2022-12-18T03:45:09;102426.25;;;0.01;84.92
69772;BME280;57046;45.988;18.664;2022-12-18T03:50:41;102434.16;;;-0.19;86.81
69772;BME280;57046;45.988;18.664;2022-12-18T03:55:47;102430.69;;;-0.13;86.47
69772;BME280;57046;45.988;18.664;2022-12-18T03:58:17;102439.09;;;-0.09;86.35
69772;BME280;57046;45.988;18.664;2022-12-18T04:00:44;102432.78;;;-0.08;86.52
69772;BME280;57046;45.988;18.664;2022-12-18T04:03:12;102433.16;;;-0.18;86.69
69772;BME280;57046;45.988;18.664;2022-12-18T04:05:40;102447.28;;;-0.04;86.31
69772;BME280;57046;45.988;18.664;2022-12-18T04:08:07;102442.56;;;-0.09;86.15
69772;BME280;57046;45.988;18.664;2022-12-18T04:10:32;102439.91;;;-0.09;85.85
69772;BME280;57046;45.988;18.664;2022-12-18T04:12:58;102459.19;;;0.13;85.47
69772;BME280;57046;45.988;18.664;2022-12-18T04:15:24;102452.00;;;0.07;85.71
69772;BME280;57046;45.988;18.664;2022-12-18T04:17:49;102456.09;;;0.03;85.63
69772;BME280;57046;45.988;18.664;2022-12-18T04:20:16;102456.28;;;-0.05;86.32
69772;BME280;57046;45.988;18.664;2022-12-18T04:22:42;102455.25;;;-0.11;86.37
69772;BME280;57046;45.988;18.664;2022-12-18T04:25:07;102467.72;;;-0.11;85.86
69772;BME280;57046;45.988;18.664;2022-12-18T04:27:33;102464.28;;;0.08;85.86
69772;BME280;57046;45.988;18.664;2022-12-18T04:29:59;102467.75;;;0.09;84.78
69772;BME280;57046;45.988;18.664;2022-12-18T04:32:24;102455.44;;;-0.06;85.13
69772;BME280;57046;45.988;18.664;2022-12-18T04:34:50;102457.13;;;0.02;84.58
69772;BME280;57046;45.988;18.664;2022-12-18T04:37:15;102465.50;;;-0.01;85.23
69772;BME280;57046;45.988;18.664;2022-12-18T04:39:41;102479.38;;;0.01;85.61
69772;BME280;57046;45.988;18.664;2022-12-18T04:42:06;102476.31;;;-0.03;84.52
69772;BME280;57046;45.988;18.664;2022-12-18T04:44:31;102490.41;;;-0.02;85.02
69772;BME280;57046;45.988;18.664;2022-12-18T04:46:57;102496.13;;;-0.05;85.61
69772;BME280;57046;45.988;18.664;2022-12-18T04:49:22;102491.81;;;-0.13;85.80
69772;BME280;57046;45.988;18.664;2022-12-18T04:51:48;102497.75;;;-0.11;85.41
69772;BME280;57046;45.988;18.664;2022-12-18T04:54:13;102501.78;;;-0.21;85.97
69772;BME280;57046;45.988;18.664;2022-12-18T04:56:38;102489.69;;;-0.30;85.97
69772;BME280;57046;45.988;18.664;2022-12-18T04:59:04;102512.78;;;-0.31;86.14
69772;BME280;57046;45.988;18.664;2022-12-18T05:01:29;102504.19;;;-0.33;85.49
69772;BME280;57046;45.988;18.664;2022-12-18T05:03:54;102496.22;;;-0.33;85.27
69772;BME280;57046;45.988;18.664;2022-12-18T05:06:20;102508.25;;;-0.30;85.36
69772;BME280;57046;45.988;18.664;2022-12-18T05:08:45;102518.72;;;-0.29;85.40
69772;BME280;57046;45.988;18.664;2022-12-18T05:11:12;102528.31;;;-0.28;85.58
69772;BME280;57046;45.988;18.664;2022-12-18T05:13:38;102515.16;;;-0.42;85.41
69772;BME280;57046;45.988;18.664;2022-12-18T05:16:04;102528.03;;;-0.39;85.36
69772;BME280;57046;45.988;18.664;2022-12-18T05:18:30;102546.28;;;-0.30;85.57
69772;BME280;57046;45.988;18.664;2022-12-18T05:20:56;102560.59;;;-0.31;85.06
69772;BME280;57046;45.988;18.664;2022-12-18T05:23:23;102546.03;;;-0.41;84.59
69772;BME280;57046;45.988;18.664;2022-12-18T05:25:57;102560.06;;;-0.47;84.53
69772;BME280;57046;45.988;18.664;2022-12-18T05:28:24;102539.38;;;-0.59;85.86
69772;BME280;57046;45.988;18.664;2022-12-18T05:30:52;102547.72;;;-0.62;85.38
69772;BME280;57046;45.988;18.664;2022-12-18T05:33:19;102557.97;;;-0.59;85.40
69772;BME280;57046;45.988;18.664;2022-12-18T05:35:53;102548.47;;;-0.68;85.71
69772;BME280;57046;45.988;18.664;2022-12-18T05:38:20;102574.06;;;-0.60;86.18
69772;BME280;57046;45.988;18.664;2022-12-18T05:40:47;102572.19;;;-0.66;85.97
69772;BME280;57046;45.988;18.664;2022-12-18T05:43:13;102576.66;;;-0.67;85.74
69772;BME280;57046;45.988;18.664;2022-12-18T05:45:39;102584.06;;;-0.62;85.79
69772;BME280;57046;45.988;18.664;2022-12-18T05:48:05;102587.41;;;-0.75;85.71
69772;BME280;57046;45.988;18.664;2022-12-18T05:50:36;102536.38;;;-1.05;84.97
69772;BME280;57046;45.988;18.664;2022-12-18T05:53:03;102588.41;;;-0.82;85.81
69772;BME280;57046;45.988;18.664;2022-12-18T05:55:29;102580.44;;;-0.82;86.39
69772;BME280;57046;45.988;18.664;2022-12-18T05:57:57;102593.72;;;-0.82;86.03
69772;BME280;57046;45.988;18.664;2022-12-18T06:00:22;102586.94;;;-0.85;85.88
69772;BME280;57046;45.988;18.664;2022-12-18T06:02:48;102599.06;;;-0.76;85.46
69772;BME280;57046;45.988;18.664;2022-12-18T06:05:14;102596.16;;;-0.81;85.98
69772;BME280;57046;45.988;18.664;2022-12-18T06:07:39;102593.06;;;-0.84;85.85
69772;BME280;57046;45.988;18.664;2022-12-18T06:10:05;102601.66;;;-0.82;85.39
69772;BME280;57046;45.988;18.664;2022-12-18T06:12:30;102607.38;;;-0.85;84.96
69772;BME280;57046;45.988;18.664;2022-12-18T06:14:56;102613.63;;;-0.93;84.95
69772;BME280;57046;45.988;18.664;2022-12-18T06:17:21;102615.63;;;-0.95;85.67
69772;BME280;57046;45.988;18.664;2022-12-18T06:19:46;102593.09;;;-1.06;86.13
69772;BME280;57046;45.988;18.664;2022-12-18T06:22:12;102579.91;;;-1.20;85.92
69772;BME280;57046;45.988;18.664;2022-12-18T06:24:37;102606.09;;;-1.11;86.58
69772;BME280;57046;45.988;18.664;2022-12-18T06:27:03;102612.16;;;-1.17;86.68
69772;BME280;57046;45.988;18.664;2022-12-18T06:29:28;102609.88;;;-1.20;86.71
69772;BME280;57046;45.988;18.664;2022-12-18T06:31:53;102620.06;;;-1.23;86.69
69772;BME280;57046;45.988;18.664;2022-12-18T06:34:19;102607.34;;;-1.28;86.67
69772;BME280;57046;45.988;18.664;2022-12-18T06:36:44;102605.50;;;-1.48;87.36
69772;BME280;57046;45.988;18.664;2022-12-18T06:39:09;102628.31;;;-1.33;87.52
69772;BME280;57046;45.988;18.664;2022-12-18T06:41:35;102623.56;;;-1.37;87.63
69772;BME280;57046;45.988;18.664;2022-12-18T06:44:00;102635.69;;;-1.28;87.39
69772;BME280;57046;45.988;18.664;2022-12-18T06:46:26;102644.22;;;-1.33;87.70
69772;BME280;57046;45.988;18.664;2022-12-18T06:48:51;102603.53;;;-1.61;87.64
69772;BME280;57046;45.988;18.664;2022-12-18T06:51:22;102655.69;;;-1.26;87.03
69772;BME280;57046;45.988;18.664;2022-12-18T06:53:47;102661.22;;;-1.27;86.82
69772;BME280;57046;45.988;18.664;2022-12-18T07:29:46;102691.13;;;-1.33;100.00
69772;BME280;57046;45.988;18.664;2022-12-18T07:32:12;102690.81;;;-1.24;100.00
69772;BME280;57046;45.988;18.664;2022-12-18T07:34:37;102699.03;;;-1.19;100.00
69772;BME280;57046;45.988;18.664;2022-12-18T07:37:03;102708.00;;;-1.20;98.48
69772;BME280;57046;45.988;18.664;2022-12-18T07:39:28;102710.38;;;-1.25;96.84
69772;BME280;57046;45.988;18.664;2022-12-18T07:41:53;102717.59;;;-1.19;96.66
69772;BME280;57046;45.988;18.664;2022-12-18T07:44:19;102714.56;;;-1.16;96.87
69772;BME280;57046;45.988;18.664;2022-12-18T07:46:44;102723.25;;;-1.07;95.97
69772;BME280;57046;45.988;18.664;2022-12-18T07:49:10;102709.38;;;-1.09;95.56
69772;BME280;57046;45.988;18.664;2022-12-18T07:51:35;102713.56;;;-1.15;95.88
69772;BME280;57046;45.988;18.664;2022-12-18T07:54:00;102719.25;;;-0.82;100.00
69772;BME280;57046;45.988;18.664;2022-12-18T07:56:26;102728.28;;;-0.76;99.03
69772;BME280;57046;45.988;18.664;2022-12-18T07:58:51;102733.09;;;-0.65;96.24
69772;BME280;57046;45.988;18.664;2022-12-18T08:01:16;102730.06;;;-0.62;95.72
69772;BME280;57046;45.988;18.664;2022-12-18T08:03:42;102712.75;;;-0.58;95.85
69772;BME280;57046;45.988;18.664;2022-12-18T08:06:08;102732.38;;;-0.53;96.05
69772;BME280;57046;45.988;18.664;2022-12-18T08:08:35;102741.41;;;-0.47;96.91
69772;BME280;57046;45.988;18.664;2022-12-18T08:11:00;102733.59;;;-0.55;96.41
69772;BME280;57046;45.988;18.664;2022-12-18T08:13:26;102754.06;;;-0.49;97.06
69772;BME280;57046;45.988;18.664;2022-12-18T08:15:58;102769.00;;;-0.48;96.97
69772;BME280;57046;45.988;18.664;2022-12-18T08:18:24;102767.59;;;-0.44;96.73
69772;BME280;57046;45.988;18.664;2022-12-18T08:20:50;102763.75;;;-0.41;97.54
69772;BME280;57046;45.988;18.664;2022-12-18T08:23:15;102759.47;;;0.07;100.00
69772;BME280;57046;45.988;18.664;2022-12-18T08:25:40;102760.22;;;0.00;100.00
69772;BME280;57046;45.988;18.664;2022-12-18T08:28:06;102766.75;;;-0.02;97.66
69772;BME280;57046;45.988;18.664;2022-12-18T08:30:31;102767.19;;;0.02;96.70
69772;BME280;57046;45.988;18.664;2022-12-18T08:32:56;102772.88;;;-0.02;95.55
69772;BME280;57046;45.988;18.664;2022-12-18T08:35:22;102766.44;;;2.42;100.00
69772;BME280;57046;45.988;18.664;2022-12-18T08:37:47;102765.41;;;0.77;100.00
69772;BME280;57046;45.988;18.664;2022-12-18T08:40:13;102773.41;;;0.43;96.47
69772;BME280;57046;45.988;18.664;2022-12-18T08:42:38;102771.66;;;0.29;95.59
69772;BME280;57046;45.988;18.664;2022-12-18T08:45:04;102784.78;;;0.30;94.03
69772;BME280;57046;45.988;18.664;2022-12-18T08:47:29;102783.34;;;0.34;93.33
69772;BME280;57046;45.988;18.664;2022-12-18T08:49:55;102789.34;;;0.43;93.25
69772;BME280;57046;45.988;18.664;2022-12-18T08:52:20;102788.34;;;0.44;92.25
69772;BME280;57046;45.988;18.664;2022-12-18T08:54:46;102787.97;;;0.47;92.79
69772;BME280;57046;45.988;18.664;2022-12-18T08:57:11;102786.97;;;0.55;91.97
69772;BME280;57046;45.988;18.664;2022-12-18T08:59:36;102789.44;;;0.56;92.38
69772;BME280;57046;45.988;18.664;2022-12-18T09:02:02;102787.25;;;0.66;92.05
69772;BME280;57046;45.988;18.664;2022-12-18T09:04:27;102787.03;;;0.61;91.39
69772;BME280;57046;45.988;18.664;2022-12-18T09:06:53;102782.34;;;0.70;91.16
69772;BME280;57046;45.988;18.664;2022-12-18T09:09:18;102781.75;;;0.68;91.11
69772;BME280;57046;45.988;18.664;2022-12-18T09:11:43;102789.34;;;0.77;90.41
69772;BME280;57046;45.988;18.664;2022-12-18T09:14:09;102785.31;;;0.88;89.63
69772;BME280;57046;45.988;18.664;2022-12-18T09:16:35;102783.66;;;0.87;90.80
69772;BME280;57046;45.988;18.664;2022-12-18T09:19:01;102776.69;;;0.86;89.36
69772;BME280;57046;45.988;18.664;2022-12-18T09:21:29;102797.47;;;1.10;89.59
69772;BME280;57046;45.988;18.664;2022-12-18T09:23:55;102790.06;;;1.06;88.80
69772;BME280;57046;45.988;18.664;2022-12-18T09:26:22;102800.38;;;1.15;88.24
69772;BME280;57046;45.988;18.664;2022-12-18T09:28:48;102795.69;;;1.24;88.62
69772;BME280;57046;45.988;18.664;2022-12-18T09:31:15;102789.34;;;1.31;87.85
69772;BME280;57046;45.988;18.664;2022-12-18T09:33:41;102788.53;;;1.31;87.48
69772;BME280;57046;45.988;18.664;2022-12-18T09:36:09;102780.97;;;1.41;88.14
69772;BME280;57046;45.988;18.664;2022-12-18T09:38:35;102773.00;;;1.41;87.59
69772;BME280;57046;45.988;18.664;2022-12-18T09:41:29;102774.44;;;1.50;85.56
69772;BME280;57046;45.988;18.664;2022-12-18T09:44:01;102771.59;;;1.51;86.61
69772;BME280;57046;45.988;18.664;2022-12-18T09:46:35;102756.81;;;1.49;87.35
69772;BME280;57046;45.988;18.664;2022-12-18T09:49:07;102773.22;;;1.52;87.33
69772;BME280;57046;45.988;18.664;2022-12-18T09:51:56;102745.97;;;1.57;86.77
69772;BME280;57046;45.988;18.664;2022-12-18T09:54:33;102766.91;;;1.73;86.42
69772;BME280;57046;45.988;18.664;2022-12-18T09:57:00;102776.53;;;1.74;87.38
69772;BME280;57046;45.988;18.664;2022-12-18T09:59:36;102770.78;;;1.77;86.54
69772;BME280;57046;45.988;18.664;2022-12-18T10:02:17;102759.75;;;1.80;87.24
69772;BME280;57046;45.988;18.664;2022-12-18T10:04:43;102775.72;;;1.80;86.46
69772;BME280;57046;45.988;18.664;2022-12-18T10:07:20;102765.06;;;1.80;87.08
69772;BME280;57046;45.988;18.664;2022-12-18T10:09:58;102765.84;;;1.74;86.58
69772;BME280;57046;45.988;18.664;2022-12-18T10:12:35;102748.84;;;1.82;87.43
69772;BME280;57046;45.988;18.664;2022-12-18T10:15:27;102750.91;;;1.99;88.91
69772;BME280;57046;45.988;18.664;2022-12-18T10:20:57;102751.38;;;2.67;88.37
69772;BME280;57046;45.988;18.664;2022-12-18T10:23:39;102756.63;;;2.93;90.67
69772;BME280;57046;45.988;18.664;2022-12-18T10:26:13;102737.19;;;3.18;87.80
69772;BME280;57046;45.988;18.664;2022-12-18T10:28:40;102751.25;;;3.69;85.65
69772;BME280;57046;45.988;18.664;2022-12-18T10:31:32;102760.50;;;3.91;80.87
69772;BME280;57046;45.988;18.664;2022-12-18T10:33:57;102743.41;;;3.74;83.27
69772;BME280;57046;45.988;18.664;2022-12-18T10:36:24;102752.59;;;4.03;83.73
69772;BME280;57046;45.988;18.664;2022-12-18T10:38:49;102754.88;;;4.42;81.62
69772;BME280;57046;45.988;18.664;2022-12-18T10:43:43;102746.44;;;4.02;81.18
69772;BME280;57046;45.988;18.664;2022-12-18T10:51:22;102739.66;;;3.75;80.81
69772;BME280;57046;45.988;18.664;2022-12-18T10:53:53;102739.72;;;3.69;79.67
69772;BME280;57046;45.988;18.664;2022-12-18T10:56:20;102740.44;;;4.07;81.18
69772;BME280;57046;45.988;18.664;2022-12-18T10:58:58;102739.34;;;3.90;80.91
69772;BME280;57046;45.988;18.664;2022-12-18T11:01:24;102743.88;;;4.14;83.38
69772;BME280;57046;45.988;18.664;2022-12-18T11:06:16;102743.53;;;4.47;81.28
69772;BME280;57046;45.988;18.664;2022-12-18T11:08:43;102757.78;;;4.23;79.88
69772;BME280;57046;45.988;18.664;2022-12-18T11:11:29;102753.16;;;4.12;78.01
69772;BME280;57046;45.988;18.664;2022-12-18T11:14:05;102755.53;;;3.95;77.21
69772;BME280;57046;45.988;18.664;2022-12-18T11:16:42;102758.16;;;4.26;82.07
69772;BME280;57046;45.988;18.664;2022-12-18T11:19:33;102762.47;;;4.27;76.64
69772;BME280;57046;45.988;18.664;2022-12-18T11:22:01;102765.03;;;4.58;82.87
69772;BME280;57046;45.988;18.664;2022-12-18T11:24:35;102763.78;;;4.79;79.87
69772;BME280;57046;45.988;18.664;2022-12-18T11:27:03;102759.38;;;5.14;77.52
69772;BME280;57046;45.988;18.664;2022-12-18T11:29:38;102752.50;;;5.48;81.21
69772;BME280;57046;45.988;18.664;2022-12-18T11:37:57;102753.78;;;5.46;71.66
69772;BME280;57046;45.988;18.664;2022-12-18T11:40:34;102751.94;;;5.58;74.16
69772;BME280;57046;45.988;18.664;2022-12-18T11:43:08;102759.16;;;5.46;71.06
69772;BME280;57046;45.988;18.664;2022-12-18T11:45:40;102758.06;;;5.24;70.93
69772;BME280;57046;45.988;18.664;2022-12-18T11:48:22;102765.03;;;5.25;73.71
69772;BME280;57046;45.988;18.664;2022-12-18T11:50:54;102743.78;;;4.93;72.60
69772;BME280;57046;45.988;18.664;2022-12-18T11:53:21;102745.59;;;4.81;74.51
69772;BME280;57046;45.988;18.664;2022-12-18T12:04:15;102747.44;;;4.08;80.02
69772;BME280;57046;45.988;18.664;2022-12-18T12:15:10;102744.44;;;3.98;79.06
69772;BME280;57046;45.988;18.664;2022-12-18T12:17:47;102733.16;;;4.14;84.85
69772;BME280;57046;45.988;18.664;2022-12-18T12:20:31;102742.16;;;4.20;88.19
69772;BME280;57046;45.988;18.664;2022-12-18T12:23:09;102727.81;;;4.32;90.20
69772;BME280;57046;45.988;18.664;2022-12-18T12:25:46;102710.25;;;4.00;81.75
69772;BME280;57046;45.988;18.664;2022-12-18T12:36:45;102734.28;;;3.82;80.81
69772;BME280;57046;45.988;18.664;2022-12-18T12:39:19;102737.50;;;3.90;79.67
69772;BME280;57046;45.988;18.664;2022-12-18T12:41:46;102740.63;;;3.87;79.62
69772;BME280;57046;45.988;18.664;2022-12-18T12:44:19;102721.47;;;3.90;80.04
69772;BME280;57046;45.988;18.664;2022-12-18T12:46:47;102734.28;;;3.82;79.09
69772;BME280;57046;45.988;18.664;2022-12-18T12:49:26;102735.75;;;3.78;78.97
69772;BME280;57046;45.988;18.664;2022-12-18T12:52:16;102751.13;;;3.82;79.07
69772;BME280;57046;45.988;18.664;2022-12-18T12:54:43;102748.38;;;3.64;79.19
69772;BME280;57046;45.988;18.664;2022-12-18T12:57:15;102739.72;;;3.69;79.22
69772;BME280;57046;45.988;18.664;2022-12-18T13:05:29;102752.00;;;3.76;79.00
69772;BME280;57046;45.988;18.664;2022-12-18T13:08:03;102739.63;;;3.57;79.76
69772;BME280;57046;45.988;18.664;2022-12-18T13:10:32;102759.69;;;3.66;79.85
69772;BME280;57046;45.988;18.664;2022-12-18T13:15:37;102765.91;;;3.60;80.23
69772;BME280;57046;45.988;18.664;2022-12-18T13:18:10;102755.63;;;3.64;79.60
69772;BME280;57046;45.988;18.664;2022-12-18T13:25:51;102764.56;;;3.76;79.48
69772;BME280;57046;45.988;18.664;2022-12-18T13:29:03;102770.94;;;3.75;79.26
69772;BME280;57046;45.988;18.664;2022-12-18T13:31:09;102771.66;;;3.64;79.21
69772;BME280;57046;45.988;18.664;2022-12-18T13:38:38;102780.09;;;3.61;79.71
69772;BME280;57046;45.988;18.664;2022-12-18T13:43:51;102794.09;;;3.56;79.47
69772;BME280;57046;45.988;18.664;2022-12-18T13:46:18;102782.59;;;3.55;80.25
69772;BME280;57046;45.988;18.664;2022-12-18T13:48:54;102777.63;;;3.59;80.05
69772;BME280;57046;45.988;18.664;2022-12-18T13:51:21;102776.50;;;3.42;79.80
69772;BME280;57046;45.988;18.664;2022-12-18T13:53:50;102777.84;;;3.57;79.74
69772;BME280;57046;45.988;18.664;2022-12-18T13:56:20;102768.94;;;3.39;80.10
69772;BME280;57046;45.988;18.664;2022-12-18T13:59:03;102774.81;;;3.47;80.10
69772;BME280;57046;45.988;18.664;2022-12-18T14:01:30;102777.34;;;3.42;80.35
69772;BME280;57046;45.988;18.664;2022-12-18T14:04:18;102773.50;;;3.32;81.57
69772;BME280;57046;45.988;18.664;2022-12-18T14:06:44;102762.09;;;3.12;81.89
69772;BME280;57046;45.988;18.664;2022-12-18T14:09:13;102789.94;;;3.29;81.00
69772;BME280;57046;45.988;18.664;2022-12-18T14:11:39;102780.22;;;3.41;80.71
69772;BME280;57046;45.988;18.664;2022-12-18T14:14:05;102774.03;;;3.40;80.72
69772;BME280;57046;45.988;18.664;2022-12-18T14:16:32;102785.03;;;3.26;80.96
69772;BME280;57046;45.988;18.664;2022-12-18T14:18:59;102797.81;;;3.17;81.79
69772;BME280;57046;45.988;18.664;2022-12-18T14:21:27;102800.16;;;2.94;82.66
69772;BME280;57046;45.988;18.664;2022-12-18T14:24:13;102808.97;;;3.01;82.41
69772;BME280;57046;45.988;18.664;2022-12-18T14:26:39;102792.00;;;2.76;83.47
69772;BME280;57046;45.988;18.664;2022-12-18T14:32:06;102818.31;;;2.59;84.48
69772;BME280;57046;45.988;18.664;2022-12-18T14:34:32;102815.06;;;2.57;85.35
69772;BME280;57046;45.988;18.664;2022-12-18T14:36:57;102821.00;;;2.59;84.98
69772;BME280;57046;45.988;18.664;2022-12-18T14:39:22;102830.25;;;2.50;85.43
69772;BME280;57046;45.988;18.664;2022-12-18T14:41:51;102830.66;;;2.53;85.02
69772;BME280;57046;45.988;18.664;2022-12-18T14:44:17;102826.56;;;2.58;84.90
69772;BME280;57046;45.988;18.664;2022-12-18T14:46:43;102839.69;;;2.52;84.80
69772;BME280;57046;45.988;18.664;2022-12-18T14:49:33;102833.13;;;2.42;85.22
69772;BME280;57046;45.988;18.664;2022-12-18T14:52:05;102831.66;;;2.59;84.68
69772;BME280;57046;45.988;18.664;2022-12-18T14:54:32;102825.13;;;2.29;84.54
69772;BME280;57046;45.988;18.664;2022-12-18T14:57:02;102846.06;;;2.38;84.70
69772;BME280;57046;45.988;18.664;2022-12-18T14:59:29;102829.44;;;2.30;84.42
69772;BME280;57046;45.988;18.664;2022-12-18T15:02:23;102836.63;;;2.36;83.88